sensor_id;sensor_type;location;lat;lon;timestamp;temperature;humidity
22212;DHT22;11275;52.488;13.462;2022-12-20T00:01:28;5.20;99.90
22212;DHT22;11275;52.488;13.462;2022-12-20T00:03:55;5.20;99.90
22212;DHT22;11275;52.488;13.462;2022-12-20T00:06:22;5.20;99.90
22212;DHT22;11275;52.488;13.462;2022-12-20T00:08:53;5.20;99.90
22212;DHT22;11275;52.488;13.462;2022-12-20T00:11:19;5.20;99.90
22212;DHT22;11275;52.488;13.462;2022-12-20T00:13:45;5.30;99.90
22212;DHT22;11275;52.488;13.462;2022-12-20T00:16:15;5.30;99.90
22212;DHT22;11275;52.488;13.462;2022-12-20T00:18:41;5.30;99.90
22212;DHT22;11275;52.488;13.462;2022-12-20T00:21:10;5.30;99.90
22212;DHT22;11275;52.488;13.462;2022-12-20T00:23:37;5.30;99.90
22212;DHT22;11275;52.488;13.462;2022-12-20T00:26:04;5.30;99.90
22212;DHT22;11275;52.488;13.462;2022-12-20T00:28:31;5.30;99.90
22212;DHT22;11275;52.488;13.462;2022-12-20T00:30:57;5.30;99.90
22212;DHT22;11275;52.488;13.462;2022-12-20T00:33:23;5.30;99.90
22212;DHT22;11275;52.488;13.462;2022-12-20T00:35:50;5.40;99.90
22212;DHT22;11275;52.488;13.462;2022-12-20T00:38:16;5.30;99.90
22212;DHT22;11275;52.488;13.462;2022-12-20T00:40:41;5.40;99.90
22212;DHT22;11275;52.488;13.462;2022-12-20T00:43:07;5.40;99.90
22212;DHT22;11275;52.488;13.462;2022-12-20T00:45:32;5.40;99.90
22212;DHT22;11275;52.488;13.462;2022-12-20T00:47:58;5.30;99.90
22212;DHT22;11275;52.488;13.462;2022-12-20T00:50:24;5.40;99.90
22212;DHT22;11275;52.488;13.462;2022-12-20T00:52:49;5.40;99.90
22212;DHT22;11275;52.488;13.462;2022-12-20T00:55:15;5.40;99.90
22212;DHT22;11275;52.488;13.462;2022-12-20T00:57:41;5.40;99.90
22212;DHT22;11275;52.488;13.462;2022-12-20T01:00:07;5.30;99.90
22212;DHT22;11275;52.488;13.462;2022-12-20T01:02:32;5.40;99.90
22212;DHT22;11275;52.488;13.462;2022-12-20T01:04:58;5.40;99.90
22212;DHT22;11275;52.488;13.462;2022-12-20T01:07:24;5.30;99.90
22212;DHT22;11275;52.488;13.462;2022-12-20T01:09:50;5.40;99.90
22212;DHT22;11275;52.488;13.462;2022-12-20T01:12:16;5.40;99.90
22212;DHT22;11275;52.488;13.462;2022-12-20T01:14:42;5.40;99.90
22212;DHT22;11275;52.488;13.462;2022-12-20T01:17:08;5.30;99.90
22212;DHT22;11275;52.488;13.462;2022-12-20T01:19:34;5.40;99.90
22212;DHT22;11275;52.488;13.462;2022-12-20T01:22:00;5.30;99.90
22212;DHT22;11275;52.488;13.462;2022-12-20T01:24:25;5.30;99.90
22212;DHT22;11275;52.488;13.462;2022-12-20T01:26:51;5.40;99.90
22212;DHT22;11275;52.488;13.462;2022-12-20T01:29:16;5.40;99.90
22212;DHT22;11275;52.488;13.462;2022-12-20T01:31:42;5.40;99.90
22212;DHT22;11275;52.488;13.462;2022-12-20T01:34:08;5.50;99.90
22212;DHT22;11275;52.488;13.462;2022-12-20T01:36:35;5.50;99.90
22212;DHT22;11275;52.488;13.462;2022-12-20T01:39:04;5.40;99.90
22212;DHT22;11275;52.488;13.462;2022-12-20T01:41:31;5.50;99.90
22212;DHT22;11275;52.488;13.462;2022-12-20T01:46:27;5.50;99.90
22212;DHT22;11275;52.488;13.462;2022-12-20T01:49:23;5.50;99.90
22212;DHT22;11275;52.488;13.462;2022-12-20T01:52:14;5.40;99.90
22212;DHT22;11275;52.488;13.462;2022-12-20T01:54:45;5.40;99.90
22212;DHT22;11275;52.488;13.462;2022-12-20T02:00:03;5.40;99.90
22212;DHT22;11275;52.488;13.462;2022-12-20T02:02:31;5.40;99.90
22212;DHT22;11275;52.488;13.462;2022-12-20T02:04:56;5.40;99.90
22212;DHT22;11275;52.488;13.462;2022-12-20T02:07:28;5.40;99.90
22212;DHT22;11275;52.488;13.462;2022-12-20T02:09:56;5.40;99.90
22212;DHT22;11275;52.488;13.462;2022-12-20T02:12:32;5.40;99.90
22212;DHT22;11275;52.488;13.462;2022-12-20T02:20:48;5.40;99.90
22212;DHT22;11275;52.488;13.462;2022-12-20T02:29:06;5.50;99.90
22212;DHT22;11275;52.488;13.462;2022-12-20T02:32:24;5.50;99.90
22212;DHT22;11275;52.488;13.462;2022-12-20T02:34:42;5.50;99.90
22212;DHT22;11275;52.488;13.462;2022-12-20T02:37:09;5.50;99.90
22212;DHT22;11275;52.488;13.462;2022-12-20T02:39:37;5.60;99.90
22212;DHT22;11275;52.488;13.462;2022-12-20T02:42:06;5.60;99.90
22212;DHT22;11275;52.488;13.462;2022-12-20T02:44:35;5.60;99.90
22212;DHT22;11275;52.488;13.462;2022-12-20T02:47:26;5.60;99.90
22212;DHT22;11275;52.488;13.462;2022-12-20T02:49:55;5.60;99.90
22212;DHT22;11275;52.488;13.462;2022-12-20T02:52:22;5.70;99.90
22212;DHT22;11275;52.488;13.462;2022-12-20T02:54:51;5.70;99.90
22212;DHT22;11275;52.488;13.462;2022-12-20T02:57:24;5.70;99.90
22212;DHT22;11275;52.488;13.462;2022-12-20T03:00:02;5.70;99.90
22212;DHT22;11275;52.488;13.462;2022-12-20T03:02:30;5.70;99.90
22212;DHT22;11275;52.488;13.462;2022-12-20T03:05:17;5.70;99.90
22212;DHT22;11275;52.488;13.462;2022-12-20T03:07:44;5.70;99.90
22212;DHT22;11275;52.488;13.462;2022-12-20T03:10:10;5.70;99.90
22212;DHT22;11275;52.488;13.462;2022-12-20T03:12:35;5.70;99.90
22212;DHT22;11275;52.488;13.462;2022-12-20T03:15:01;5.70;99.90
22212;DHT22;11275;52.488;13.462;2022-12-20T03:17:27;5.70;99.90
22212;DHT22;11275;52.488;13.462;2022-12-20T03:19:53;5.80;99.90
22212;DHT22;11275;52.488;13.462;2022-12-20T03:22:18;5.70;99.90
22212;DHT22;11275;52.488;13.462;2022-12-20T03:24:44;5.90;99.90
22212;DHT22;11275;52.488;13.462;2022-12-20T03:27:10;5.90;99.90
22212;DHT22;11275;52.488;13.462;2022-12-20T03:29:35;5.90;99.90
22212;DHT22;11275;52.488;13.462;2022-12-20T03:32:01;5.80;99.90
22212;DHT22;11275;52.488;13.462;2022-12-20T03:34:27;5.90;99.90
22212;DHT22;11275;52.488;13.462;2022-12-20T03:36:53;5.90;99.90
22212;DHT22;11275;52.488;13.462;2022-12-20T03:39:18;5.90;99.90
22212;DHT22;11275;52.488;13.462;2022-12-20T03:41:44;5.90;99.90
22212;DHT22;11275;52.488;13.462;2022-12-20T03:44:09;6.00;99.90
22212;DHT22;11275;52.488;13.462;2022-12-20T03:46:35;6.00;99.90
22212;DHT22;11275;52.488;13.462;2022-12-20T03:49:01;6.00;99.90
22212;DHT22;11275;52.488;13.462;2022-12-20T03:51:29;6.00;99.90
22212;DHT22;11275;52.488;13.462;2022-12-20T03:53:55;6.00;99.90
22212;DHT22;11275;52.488;13.462;2022-12-20T03:56:21;6.00;99.90
22212;DHT22;11275;52.488;13.462;2022-12-20T03:58:46;6.00;99.90
22212;DHT22;11275;52.488;13.462;2022-12-20T04:01:26;6.10;99.90
22212;DHT22;11275;52.488;13.462;2022-12-20T04:03:52;6.10;99.90
22212;DHT22;11275;52.488;13.462;2022-12-20T04:06:19;6.00;99.90
22212;DHT22;11275;52.488;13.462;2022-12-20T04:08:45;6.00;99.90
22212;DHT22;11275;52.488;13.462;2022-12-20T04:11:12;6.00;99.90
22212;DHT22;11275;52.488;13.462;2022-12-20T04:13:41;6.00;99.90
22212;DHT22;11275;52.488;13.462;2022-12-20T04:16:07;6.00;99.90
22212;DHT22;11275;52.488;13.462;2022-12-20T04:18:33;6.00;99.90
22212;DHT22;11275;52.488;13.462;2022-12-20T04:21:00;6.00;99.90
22212;DHT22;11275;52.488;13.462;2022-12-20T04:23:26;6.00;99.90
22212;DHT22;11275;52.488;13.462;2022-12-20T04:25:51;6.00;99.90
22212;DHT22;11275;52.488;13.462;2022-12-20T04:28:17;5.90;99.90
22212;DHT22;11275;52.488;13.462;2022-12-20T04:30:43;5.90;99.90
22212;DHT22;11275;52.488;13.462;2022-12-20T04:33:11;5.80;99.90
22212;DHT22;11275;52.488;13.462;2022-12-20T04:35:36;5.80;99.90
22212;DHT22;11275;52.488;13.462;2022-12-20T04:38:02;5.80;99.90
22212;DHT22;11275;52.488;13.462;2022-12-20T04:40:28;5.70;99.90
22212;DHT22;11275;52.488;13.462;2022-12-20T04:42:54;5.70;99.90
22212;DHT22;11275;52.488;13.462;2022-12-20T04:45:19;5.70;99.90
22212;DHT22;11275;52.488;13.462;2022-12-20T04:47:45;5.70;99.90
22212;DHT22;11275;52.488;13.462;2022-12-20T04:50:11;5.70;99.90
22212;DHT22;11275;52.488;13.462;2022-12-20T04:52:36;5.70;99.90
22212;DHT22;11275;52.488;13.462;2022-12-20T04:55:21;5.60;99.90
22212;DHT22;11275;52.488;13.462;2022-12-20T04:57:47;5.60;99.90
22212;DHT22;11275;52.488;13.462;2022-12-20T05:00:14;5.60;99.90
22212;DHT22;11275;52.488;13.462;2022-12-20T05:02:40;5.60;99.90
22212;DHT22;11275;52.488;13.462;2022-12-20T05:05:06;5.60;99.90
22212;DHT22;11275;52.488;13.462;2022-12-20T05:07:32;5.60;99.90
22212;DHT22;11275;52.488;13.462;2022-12-20T05:09:57;5.60;99.90
22212;DHT22;11275;52.488;13.462;2022-12-20T05:12:23;5.50;99.90
22212;DHT22;11275;52.488;13.462;2022-12-20T05:14:48;5.50;99.90
22212;DHT22;11275;52.488;13.462;2022-12-20T05:17:14;5.60;99.90
22212;DHT22;11275;52.488;13.462;2022-12-20T05:19:40;5.60;99.90
22212;DHT22;11275;52.488;13.462;2022-12-20T05:22:05;5.50;99.90
22212;DHT22;11275;52.488;13.462;2022-12-20T05:24:49;5.60;99.90
22212;DHT22;11275;52.488;13.462;2022-12-20T05:27:33;5.60;99.90
22212;DHT22;11275;52.488;13.462;2022-12-20T05:29:59;5.70;99.90
22212;DHT22;11275;52.488;13.462;2022-12-20T05:32:25;5.70;99.90
22212;DHT22;11275;52.488;13.462;2022-12-20T05:34:50;5.60;99.90
22212;DHT22;11275;52.488;13.462;2022-12-20T05:37:16;5.70;99.90
22212;DHT22;11275;52.488;13.462;2022-12-20T05:39:41;5.70;99.90
22212;DHT22;11275;52.488;13.462;2022-12-20T05:42:07;5.70;99.90
22212;DHT22;11275;52.488;13.462;2022-12-20T05:44:33;5.70;99.90
22212;DHT22;11275;52.488;13.462;2022-12-20T05:46:59;5.90;99.90
22212;DHT22;11275;52.488;13.462;2022-12-20T05:49:24;5.80;99.90
22212;DHT22;11275;52.488;13.462;2022-12-20T05:51:50;5.90;99.90
22212;DHT22;11275;52.488;13.462;2022-12-20T05:54:16;5.90;99.90
22212;DHT22;11275;52.488;13.462;2022-12-20T05:56:41;5.90;99.90
22212;DHT22;11275;52.488;13.462;2022-12-20T05:59:07;5.90;99.90
22212;DHT22;11275;52.488;13.462;2022-12-20T06:01:33;6.00;99.90
22212;DHT22;11275;52.488;13.462;2022-12-20T06:03:59;6.00;99.90
22212;DHT22;11275;52.488;13.462;2022-12-20T06:06:25;6.00;99.90
22212;DHT22;11275;52.488;13.462;2022-12-20T06:08:50;6.00;99.90
22212;DHT22;11275;52.488;13.462;2022-12-20T06:11:16;6.00;99.90
22212;DHT22;11275;52.488;13.462;2022-12-20T06:13:42;6.10;99.90
22212;DHT22;11275;52.488;13.462;2022-12-20T06:16:07;6.10;99.90
22212;DHT22;11275;52.488;13.462;2022-12-20T06:18:33;6.10;99.90
22212;DHT22;11275;52.488;13.462;2022-12-20T06:20:58;6.10;99.90
22212;DHT22;11275;52.488;13.462;2022-12-20T06:23:24;6.20;99.90
22212;DHT22;11275;52.488;13.462;2022-12-20T06:25:50;6.20;99.90
22212;DHT22;11275;52.488;13.462;2022-12-20T06:28:16;6.20;99.90
22212;DHT22;11275;52.488;13.462;2022-12-20T06:30:54;6.30;99.90
22212;DHT22;11275;52.488;13.462;2022-12-20T06:33:20;6.20;99.90
22212;DHT22;11275;52.488;13.462;2022-12-20T06:35:48;6.30;99.90
22212;DHT22;11275;52.488;13.462;2022-12-20T06:38:14;6.30;99.90
22212;DHT22;11275;52.488;13.462;2022-12-20T06:40:39;6.30;99.90
22212;DHT22;11275;52.488;13.462;2022-12-20T06:43:05;6.40;99.90
22212;DHT22;11275;52.488;13.462;2022-12-20T06:45:31;6.30;99.90
22212;DHT22;11275;52.488;13.462;2022-12-20T06:47:57;6.30;99.90
22212;DHT22;11275;52.488;13.462;2022-12-20T06:50:23;6.30;99.90
22212;DHT22;11275;52.488;13.462;2022-12-20T06:52:48;6.30;99.90
22212;DHT22;11275;52.488;13.462;2022-12-20T06:55:14;6.40;99.90
22212;DHT22;11275;52.488;13.462;2022-12-20T06:57:40;6.40;99.90
22212;DHT22;11275;52.488;13.462;2022-12-20T07:00:07;6.40;99.90
22212;DHT22;11275;52.488;13.462;2022-12-20T07:02:35;6.50;99.90
22212;DHT22;11275;52.488;13.462;2022-12-20T07:05:00;6.40;99.90
22212;DHT22;11275;52.488;13.462;2022-12-20T07:07:26;6.50;99.90
22212;DHT22;11275;52.488;13.462;2022-12-20T07:09:51;6.40;99.90
22212;DHT22;11275;52.488;13.462;2022-12-20T07:12:17;6.40;99.90
22212;DHT22;11275;52.488;13.462;2022-12-20T07:14:43;6.50;99.90
22212;DHT22;11275;52.488;13.462;2022-12-20T07:17:09;6.40;99.90
22212;DHT22;11275;52.488;13.462;2022-12-20T07:19:35;6.40;99.90
22212;DHT22;11275;52.488;13.462;2022-12-20T07:22:01;6.50;99.90
22212;DHT22;11275;52.488;13.462;2022-12-20T07:24:26;6.50;99.90
22212;DHT22;11275;52.488;13.462;2022-12-20T07:26:52;6.50;99.90
22212;DHT22;11275;52.488;13.462;2022-12-20T07:29:18;6.50;99.90
22212;DHT22;11275;52.488;13.462;2022-12-20T07:31:43;6.50;99.90
22212;DHT22;11275;52.488;13.462;2022-12-20T07:34:09;6.60;99.90
22212;DHT22;11275;52.488;13.462;2022-12-20T07:36:35;6.60;99.90
22212;DHT22;11275;52.488;13.462;2022-12-20T07:39:01;6.70;99.90
22212;DHT22;11275;52.488;13.462;2022-12-20T07:41:26;6.70;99.90
22212;DHT22;11275;52.488;13.462;2022-12-20T07:43:52;6.70;99.90
22212;DHT22;11275;52.488;13.462;2022-12-20T07:46:18;6.70;99.90
22212;DHT22;11275;52.488;13.462;2022-12-20T07:48:44;6.70;99.90
22212;DHT22;11275;52.488;13.462;2022-12-20T07:51:14;6.70;99.90
22212;DHT22;11275;52.488;13.462;2022-12-20T07:53:46;6.80;99.90
22212;DHT22;11275;52.488;13.462;2022-12-20T07:56:13;6.80;99.90
22212;DHT22;11275;52.488;13.462;2022-12-20T07:58:40;6.80;99.90
22212;DHT22;11275;52.488;13.462;2022-12-20T08:01:07;6.80;99.90
22212;DHT22;11275;52.488;13.462;2022-12-20T08:03:43;6.80;99.90
22212;DHT22;11275;52.488;13.462;2022-12-20T08:06:09;6.90;99.90
22212;DHT22;11275;52.488;13.462;2022-12-20T08:08:38;6.90;99.90
22212;DHT22;11275;52.488;13.462;2022-12-20T08:11:06;6.90;99.90
22212;DHT22;11275;52.488;13.462;2022-12-20T08:13:33;7.00;99.90
22212;DHT22;11275;52.488;13.462;2022-12-20T08:15:59;6.90;99.90
22212;DHT22;11275;52.488;13.462;2022-12-20T08:18:25;6.90;99.90
22212;DHT22;11275;52.488;13.462;2022-12-20T08:20:51;7.00;99.90
22212;DHT22;11275;52.488;13.462;2022-12-20T08:23:17;7.00;99.90
22212;DHT22;11275;52.488;13.462;2022-12-20T08:25:44;7.00;99.90
22212;DHT22;11275;52.488;13.462;2022-12-20T08:28:09;7.00;99.90
22212;DHT22;11275;52.488;13.462;2022-12-20T08:30:35;7.00;99.90
22212;DHT22;11275;52.488;13.462;2022-12-20T08:33:01;7.00;99.90
22212;DHT22;11275;52.488;13.462;2022-12-20T08:35:27;7.00;99.90
22212;DHT22;11275;52.488;13.462;2022-12-20T08:37:52;7.10;99.90
22212;DHT22;11275;52.488;13.462;2022-12-20T08:40:19;7.10;99.90
22212;DHT22;11275;52.488;13.462;2022-12-20T08:42:44;7.10;99.90
22212;DHT22;11275;52.488;13.462;2022-12-20T08:45:10;7.10;99.90
22212;DHT22;11275;52.488;13.462;2022-12-20T08:47:36;7.00;99.90
22212;DHT22;11275;52.488;13.462;2022-12-20T08:50:03;7.10;99.90
22212;DHT22;11275;52.488;13.462;2022-12-20T08:52:29;7.20;99.90
22212;DHT22;11275;52.488;13.462;2022-12-20T08:54:55;7.10;99.90
22212;DHT22;11275;52.488;13.462;2022-12-20T08:57:20;7.10;99.90
22212;DHT22;11275;52.488;13.462;2022-12-20T08:59:46;7.20;99.90
22212;DHT22;11275;52.488;13.462;2022-12-20T09:02:11;7.20;99.90
22212;DHT22;11275;52.488;13.462;2022-12-20T09:04:37;7.20;99.90
22212;DHT22;11275;52.488;13.462;2022-12-20T09:07:03;7.20;99.90
22212;DHT22;11275;52.488;13.462;2022-12-20T09:09:28;7.20;99.90
22212;DHT22;11275;52.488;13.462;2022-12-20T09:11:54;7.30;99.90
22212;DHT22;11275;52.488;13.462;2022-12-20T09:14:20;7.30;99.90
22212;DHT22;11275;52.488;13.462;2022-12-20T09:16:46;7.30;99.90
22212;DHT22;11275;52.488;13.462;2022-12-20T09:19:14;7.40;99.90
22212;DHT22;11275;52.488;13.462;2022-12-20T09:21:40;7.40;99.90
22212;DHT22;11275;52.488;13.462;2022-12-20T09:24:06;7.40;99.90
22212;DHT22;11275;52.488;13.462;2022-12-20T09:26:31;7.40;99.90
22212;DHT22;11275;52.488;13.462;2022-12-20T09:28:59;7.40;99.90
22212;DHT22;11275;52.488;13.462;2022-12-20T09:31:26;7.40;99.90
22212;DHT22;11275;52.488;13.462;2022-12-20T09:33:53;7.40;99.90
22212;DHT22;11275;52.488;13.462;2022-12-20T09:36:21;7.50;99.90
22212;DHT22;11275;52.488;13.462;2022-12-20T09:38:47;7.50;99.90
22212;DHT22;11275;52.488;13.462;2022-12-20T09:43:53;7.70;99.90
22212;DHT22;11275;52.488;13.462;2022-12-20T09:46:21;7.70;99.90
22212;DHT22;11275;52.488;13.462;2022-12-20T09:48:51;7.80;99.90
22212;DHT22;11275;52.488;13.462;2022-12-20T09:51:28;7.80;99.90
22212;DHT22;11275;52.488;13.462;2022-12-20T09:54:22;7.90;99.90
22212;DHT22;11275;52.488;13.462;2022-12-20T09:56:57;7.90;99.90
22212;DHT22;11275;52.488;13.462;2022-12-20T09:59:23;7.90;99.90
22212;DHT22;11275;52.488;13.462;2022-12-20T10:01:49;7.80;99.90
22212;DHT22;11275;52.488;13.462;2022-12-20T10:04:27;7.90;99.90
22212;DHT22;11275;52.488;13.462;2022-12-20T10:07:02;7.90;99.90
22212;DHT22;11275;52.488;13.462;2022-12-20T10:15:20;8.00;99.90
22212;DHT22;11275;52.488;13.462;2022-12-20T10:25:50;8.20;99.90
22212;DHT22;11275;52.488;13.462;2022-12-20T10:28:16;8.20;99.90
22212;DHT22;11275;52.488;13.462;2022-12-20T10:30:44;8.20;99.90
22212;DHT22;11275;52.488;13.462;2022-12-20T10:33:21;8.30;99.90
22212;DHT22;11275;52.488;13.462;2022-12-20T10:35:48;8.30;99.90
22212;DHT22;11275;52.488;13.462;2022-12-20T10:38:15;8.20;99.90
22212;DHT22;11275;52.488;13.462;2022-12-20T10:43:20;8.20;99.90
22212;DHT22;11275;52.488;13.462;2022-12-20T10:46:05;8.30;99.90
22212;DHT22;11275;52.488;13.462;2022-12-20T10:48:32;8.40;99.90
22212;DHT22;11275;52.488;13.462;2022-12-20T10:53:36;8.50;99.90
22212;DHT22;11275;52.488;13.462;2022-12-20T10:58:35;8.60;99.90
22212;DHT22;11275;52.488;13.462;2022-12-20T11:01:17;8.70;99.90
22212;DHT22;11275;52.488;13.462;2022-12-20T11:04:04;8.60;99.90
22212;DHT22;11275;52.488;13.462;2022-12-20T11:09:26;8.60;99.90
22212;DHT22;11275;52.488;13.462;2022-12-20T11:14:26;8.60;99.90
22212;DHT22;11275;52.488;13.462;2022-12-20T11:16:54;8.60;99.90
22212;DHT22;11275;52.488;13.462;2022-12-20T11:19:29;8.60;99.90
22212;DHT22;11275;52.488;13.462;2022-12-20T11:22:01;8.60;99.90
22212;DHT22;11275;52.488;13.462;2022-12-20T11:31:47;8.60;99.90
22212;DHT22;11275;52.488;13.462;2022-12-20T11:37:08;8.70;99.90
22212;DHT22;11275;52.488;13.462;2022-12-20T11:41:59;8.70;99.90
22212;DHT22;11275;52.488;13.462;2022-12-20T11:58:10;8.90;99.90
22212;DHT22;11275;52.488;13.462;2022-12-20T12:00:38;8.90;99.90
22212;DHT22;11275;52.488;13.462;2022-12-20T12:05:54;8.90;99.90
22212;DHT22;11275;52.488;13.462;2022-12-20T12:08:24;8.90;99.90
22212;DHT22;11275;52.488;13.462;2022-12-20T12:10:57;8.90;99.90
22212;DHT22;11275;52.488;13.462;2022-12-20T12:13:30;9.00;99.90
22212;DHT22;11275;52.488;13.462;2022-12-20T12:16:52;9.00;99.90
22212;DHT22;11275;52.488;13.462;2022-12-20T12:18:54;9.00;99.90
22212;DHT22;11275;52.488;13.462;2022-12-20T12:26:29;9.00;99.90
22212;DHT22;11275;52.488;13.462;2022-12-20T12:29:00;9.00;99.90
22212;DHT22;11275;52.488;13.462;2022-12-20T12:32:06;9.00;99.90
22212;DHT22;11275;52.488;13.462;2022-12-20T12:34:47;9.00;99.90
22212;DHT22;11275;52.488;13.462;2022-12-20T12:43:18;8.90;99.90
22212;DHT22;11275;52.488;13.462;2022-12-20T12:45:58;9.00;99.90
22212;DHT22;11275;52.488;13.462;2022-12-20T12:48:44;9.00;99.90
22212;DHT22;11275;52.488;13.462;2022-12-20T12:51:13;8.90;99.90
22212;DHT22;11275;52.488;13.462;2022-12-20T12:53:53;9.00;99.90
22212;DHT22;11275;52.488;13.462;2022-12-20T13:01:56;8.90;99.90
22212;DHT22;11275;52.488;13.462;2022-12-20T13:16:08;9.00;99.90
22212;DHT22;11275;52.488;13.462;2022-12-20T13:18:19;9.10;99.90
22212;DHT22;11275;52.488;13.462;2022-12-20T13:21:27;9.00;99.90
22212;DHT22;11275;52.488;13.462;2022-12-20T13:26:59;8.90;99.90
22212;DHT22;11275;52.488;13.462;2022-12-20T13:29:27;8.80;99.90
22212;DHT22;11275;52.488;13.462;2022-12-20T13:31:57;8.90;99.90
22212;DHT22;11275;52.488;13.462;2022-12-20T13:34:38;8.80;99.90
22212;DHT22;11275;52.488;13.462;2022-12-20T13:39:51;8.90;99.90
22212;DHT22;11275;52.488;13.462;2022-12-20T13:42:29;8.90;99.90
22212;DHT22;11275;52.488;13.462;2022-12-20T13:45:02;8.90;99.90
22212;DHT22;11275;52.488;13.462;2022-12-20T13:47:36;8.90;99.90
22212;DHT22;11275;52.488;13.462;2022-12-20T13:52:49;9.00;99.90
22212;DHT22;11275;52.488;13.462;2022-12-20T13:55:32;9.00;99.90
22212;DHT22;11275;52.488;13.462;2022-12-20T13:58:09;8.90;99.90
22212;DHT22;11275;52.488;13.462;2022-12-20T14:00:36;8.90;99.90
22212;DHT22;11275;52.488;13.462;2022-12-20T14:03:03;8.90;99.90
22212;DHT22;11275;52.488;13.462;2022-12-20T14:05:36;8.90;99.90
22212;DHT22;11275;52.488;13.462;2022-12-20T14:08:08;8.90;99.90
22212;DHT22;11275;52.488;13.462;2022-12-20T14:10:35;8.80;99.90
22212;DHT22;11275;52.488;13.462;2022-12-20T14:13:01;8.90;99.90
22212;DHT22;11275;52.488;13.462;2022-12-20T14:15:31;9.00;99.90
22212;DHT22;11275;52.488;13.462;2022-12-20T14:18:20;8.90;99.90
22212;DHT22;11275;52.488;13.462;2022-12-20T14:20:58;8.90;99.90
22212;DHT22;11275;52.488;13.462;2022-12-20T14:23:51;8.80;99.90
22212;DHT22;11275;52.488;13.462;2022-12-20T14:26:23;8.80;99.90
22212;DHT22;11275;52.488;13.462;2022-12-20T14:28:53;8.80;99.90
22212;DHT22;11275;52.488;13.462;2022-12-20T14:34:01;8.80;99.90
22212;DHT22;11275;52.488;13.462;2022-12-20T14:36:27;8.80;99.90
22212;DHT22;11275;52.488;13.462;2022-12-20T14:38:55;8.80;99.90
22212;DHT22;11275;52.488;13.462;2022-12-20T14:41:38;8.80;99.90
22212;DHT22;11275;52.488;13.462;2022-12-20T14:44:15;8.80;99.90
22212;DHT22;11275;52.488;13.462;2022-12-20T14:46:53;8.80;99.90
22212;DHT22;11275;52.488;13.462;2022-12-20T14:49:36;8.80;99.90
22212;DHT22;11275;52.488;13.462;2022-12-20T14:54:47;8.70;99.90
22212;DHT22;11275;52.488;13.462;2022-12-20T14:57:22;8.70;99.90
22212;DHT22;11275;52.488;13.462;2022-12-20T15:05:08;8.70;99.90
22212;DHT22;11275;52.488;13.462;2022-12-20T15:07:34;8.70;99.90
22212;DHT22;11275;52.488;13.462;2022-12-20T15:10:07;8.60;99.90
22212;DHT22;11275;52.488;13.462;2022-12-20T15:12:33;8.60;99.90
22212;DHT22;11275;52.488;13.462;2022-12-20T15:14:58;8.70;99.90
22212;DHT22;11275;52.488;13.462;2022-12-20T15:17:24;8.70;99.90
22212;DHT22;11275;52.488;13.462;2022-12-20T15:19:50;8.70;99.90
22212;DHT22;11275;52.488;13.462;2022-12-20T15:22:17;8.60;99.90
22212;DHT22;11275;52.488;13.462;2022-12-20T15:24:43;8.60;99.90
22212;DHT22;11275;52.488;13.462;2022-12-20T15:27:13;8.60;99.90
22212;DHT22;11275;52.488;13.462;2022-12-20T15:29:39;8.60;99.90
22212;DHT22;11275;52.488;13.462;2022-12-20T15:32:10;8.60;99.90
22212;DHT22;11275;52.488;13.462;2022-12-20T15:34:39;8.60;99.90
22212;DHT22;11275;52.488;13.462;2022-12-20T15:37:04;8.60;99.90
22212;DHT22;11275;52.488;13.462;2022-12-20T15:39:31;8.60;99.90
22212;DHT22;11275;52.488;13.462;2022-12-20T15:41:59;8.60;99.90
22212;DHT22;11275;52.488;13.462;2022-12-20T15:44:28;8.50;99.90
22212;DHT22;11275;52.488;13.462;2022-12-20T15:46:54;8.50;99.90
22212;DHT22;11275;52.488;13.462;2022-12-20T15:49:23;8.50;99.90
22212;DHT22;11275;52.488;13.462;2022-12-20T15:51:51;8.50;99.90
22212;DHT22;11275;52.488;13.462;2022-12-20T15:56:58;8.50;99.90
22212;DHT22;11275;52.488;13.462;2022-12-20T15:59:24;8.50;99.90
22212;DHT22;11275;52.488;13.462;2022-12-20T16:01:50;8.40;99.90
22212;DHT22;11275;52.488;13.462;2022-12-20T16:04:19;8.40;99.90
22212;DHT22;11275;52.488;13.462;2022-12-20T16:06:47;8.50;99.90
22212;DHT22;11275;52.488;13.462;2022-12-20T16:09:14;8.50;99.90
22212;DHT22;11275;52.488;13.462;2022-12-20T16:11:40;8.50;99.90
22212;DHT22;11275;52.488;13.462;2022-12-20T16:14:13;8.50;99.90
22212;DHT22;11275;52.488;13.462;2022-12-20T16:16:39;8.50;99.90
22212;DHT22;11275;52.488;13.462;2022-12-20T16:19:05;8.50;99.90
22212;DHT22;11275;52.488;13.462;2022-12-20T16:21:34;8.50;99.90
22212;DHT22;11275;52.488;13.462;2022-12-20T16:24:01;8.40;99.90
22212;DHT22;11275;52.488;13.462;2022-12-20T16:26:27;8.40;99.90
22212;DHT22;11275;52.488;13.462;2022-12-20T16:28:56;8.40;99.90
22212;DHT22;11275;52.488;13.462;2022-12-20T16:31:27;8.40;99.90
22212;DHT22;11275;52.488;13.462;2022-12-20T16:33:55;8.40;99.90
22212;DHT22;11275;52.488;13.462;2022-12-20T16:36:22;8.40;99.90
22212;DHT22;11275;52.488;13.462;2022-12-20T16:38:48;8.30;99.90
22212;DHT22;11275;52.488;13.462;2022-12-20T16:41:17;8.40;99.90
22212;DHT22;11275;52.488;13.462;2022-12-20T16:43:43;8.30;99.90
22212;DHT22;11275;52.488;13.462;2022-12-20T16:46:17;8.30;99.90
22212;DHT22;11275;52.488;13.462;2022-12-20T16:48:43;8.30;99.90
22212;DHT22;11275;52.488;13.462;2022-12-20T16:53:58;8.30;99.90
22212;DHT22;11275;52.488;13.462;2022-12-20T16:56:25;8.30;99.90
22212;DHT22;11275;52.488;13.462;2022-12-20T16:58:51;8.20;99.90
22212;DHT22;11275;52.488;13.462;2022-12-20T17:01:32;8.20;99.90
22212;DHT22;11275;52.488;13.462;2022-12-20T17:03:59;8.20;99.90
22212;DHT22;11275;52.488;13.462;2022-12-20T17:06:25;8.20;99.90
22212;DHT22;11275;52.488;13.462;2022-12-20T17:08:50;8.20;99.90
22212;DHT22;11275;52.488;13.462;2022-12-20T17:13:48;8.20;99.90
22212;DHT22;11275;52.488;13.462;2022-12-20T17:16:14;8.20;99.90
22212;DHT22;11275;52.488;13.462;2022-12-20T17:18:42;8.20;99.90
22212;DHT22;11275;52.488;13.462;2022-12-20T17:23:55;8.20;99.90
22212;DHT22;11275;52.488;13.462;2022-12-20T17:26:25;8.20;99.90
22212;DHT22;11275;52.488;13.462;2022-12-20T17:28:52;8.10;99.90
22212;DHT22;11275;52.488;13.462;2022-12-20T17:33:55;8.20;99.90
22212;DHT22;11275;52.488;13.462;2022-12-20T17:36:21;8.10;99.90
22212;DHT22;11275;52.488;13.462;2022-12-20T17:38:47;8.10;99.90
22212;DHT22;11275;52.488;13.462;2022-12-20T17:41:29;8.10;99.90
22212;DHT22;11275;52.488;13.462;2022-12-20T17:43:56;8.00;99.90
22212;DHT22;11275;52.488;13.462;2022-12-20T17:46:22;8.00;99.90
22212;DHT22;11275;52.488;13.462;2022-12-20T17:48:48;8.00;99.90
22212;DHT22;11275;52.488;13.462;2022-12-20T17:51:25;8.00;99.90
22212;DHT22;11275;52.488;13.462;2022-12-20T17:53:56;8.00;99.90
22212;DHT22;11275;52.488;13.462;2022-12-20T17:58:52;8.10;99.90